EDDE/ERF METAR and TAF weather

Enter ICAO airport designator
Station Type Date Time Source
EDDE METAR 2020/09/18 23:20 UTC NOAA

EDDE 182320Z VRB02KT CAVOK 11/04 Q1024


Station Type Date Time Source
EDDE Decoded METAR 2020/09/18 23:20 UTC NOAA

Erfurt-Bindersleben, Germany (EDDE) 50-59N 010-58E 322M
Sep 18, 2020 - 07:20 PM EDT / 2020.09.18 2320 UTC
Wind: Variable at 2 MPH (2 KT):0
Visibility: greater than 7 mile(s):0
Temperature: 51 F (11 C)
Dew Point: 39 F (4 C)
Relative Humidity: 61%
Pressure (altimeter): 30.24 in. Hg (1024 hPa)
ob: EDDE 182320Z VRB02KT CAVOK 11/04 Q1024
cycle: 23

Station Type Date Time Source
EDDE TAF 2020/09/18 18:30 UTC NOAA

TAF TAF EDDE 181700Z 1818/1918 09008KT CAVOK
BECMG 1819/1821 15004KT
BECMG 1907/1909 06007KT

Example: see airport list